North Fork, Illinois
Current Conditions -  °F | °C
As of 4:35 PM on Monday 24 Nov 2014 (Local Time) from KHSB Reporting Station
Scattered Clouds Scattered Clouds  
Wind Chill: 40°   Ceiling: Unl
Heat Index: 45°   Visibility: 10mi
Dew Point: 32°   Wind: 9mph
Humidity: 60%   Direction: 270°W
Pressure: 29.85"   Gusts: NA
Location:  37.8197°N, 88.2641°W
Report Text: KHSB 242235Z AUTO 27008KT 10SM SCT060 07/00 A2985 RMK AO2 T00711001
Loading
Personal Weather Stations






























Interactive Weather Map New forecast layout! Learn more

10-Day Weather Forecast

Advertisements
Track Severe Weather on mobile